sensor_id;sensor_type;location;lat;lon;timestamp;pressure;altitude;pressure_sealevel;temperature;humidity
36234;BME280;43467;50.890;5.982;2023-07-31T00:01:30;99845.22;;;17.45;96.44
36234;BME280;43467;50.890;5.982;2023-07-31T00:03:55;99849.03;;;17.43;95.82
36234;BME280;43467;50.890;5.982;2023-07-31T00:06:21;99824.56;;;17.36;96.17
36234;BME280;43467;50.890;5.982;2023-07-31T00:08:47;99837.31;;;17.33;95.31
36234;BME280;43467;50.890;5.982;2023-07-31T00:11:12;99850.22;;;17.39;95.71
36234;BME280;43467;50.890;5.982;2023-07-31T00:13:38;99852.66;;;17.42;95.72
36234;BME280;43467;50.890;5.982;2023-07-31T00:16:03;99848.16;;;17.42;95.04
36234;BME280;43467;50.890;5.982;2023-07-31T00:18:29;99843.53;;;17.44;94.74
36234;BME280;43467;50.890;5.982;2023-07-31T00:20:54;99845.75;;;17.39;95.12
36234;BME280;43467;50.890;5.982;2023-07-31T00:23:20;99831.13;;;17.43;95.42
36234;BME280;43467;50.890;5.982;2023-07-31T00:25:45;99838.78;;;17.37;95.33
36234;BME280;43467;50.890;5.982;2023-07-31T00:28:11;99784.09;;;17.07;95.52
36234;BME280;43467;50.890;5.982;2023-07-31T00:30:37;99808.88;;;17.32;95.12
36234;BME280;43467;50.890;5.982;2023-07-31T00:33:03;99831.75;;;17.36;94.87
36234;BME280;43467;50.890;5.982;2023-07-31T00:35:28;99744.94;;;16.84;94.76
36234;BME280;43467;50.890;5.982;2023-07-31T00:37:54;99814.47;;;17.17;95.13
36234;BME280;43467;50.890;5.982;2023-07-31T00:40:19;99787.72;;;17.06;95.13
36234;BME280;43467;50.890;5.982;2023-07-31T00:42:44;99803.06;;;17.27;95.10
36234;BME280;43467;50.890;5.982;2023-07-31T00:45:10;99764.13;;;17.00;95.11
36234;BME280;43467;50.890;5.982;2023-07-31T00:47:36;99812.38;;;17.32;95.23
36234;BME280;43467;50.890;5.982;2023-07-31T00:50:01;99763.28;;;16.89;94.96
36234;BME280;43467;50.890;5.982;2023-07-31T00:52:27;99814.47;;;17.29;95.50
36234;BME280;43467;50.890;5.982;2023-07-31T00:54:52;99805.47;;;17.18;95.63
36234;BME280;43467;50.890;5.982;2023-07-31T00:57:18;99747.84;;;16.92;95.96
36234;BME280;43467;50.890;5.982;2023-07-31T00:59:44;99797.69;;;17.27;95.96
36234;BME280;43467;50.890;5.982;2023-07-31T01:02:11;99798.41;;;17.29;95.95
36234;BME280;43467;50.890;5.982;2023-07-31T01:04:37;99797.06;;;17.34;96.28
36234;BME280;43467;50.890;5.982;2023-07-31T01:10:04;99805.81;;;17.36;96.91
36234;BME280;43467;50.890;5.982;2023-07-31T01:12:33;99794.28;;;17.36;97.32
36234;BME280;43467;50.890;5.982;2023-07-31T01:15:07;99781.38;;;17.30;97.06
36234;BME280;43467;50.890;5.982;2023-07-31T01:17:37;99779.19;;;17.35;97.54
36234;BME280;43467;50.890;5.982;2023-07-31T01:20:05;99772.88;;;17.36;97.45
36234;BME280;43467;50.890;5.982;2023-07-31T01:23:23;99779.91;;;17.37;97.89
36234;BME280;43467;50.890;5.982;2023-07-31T01:28:55;99785.75;;;17.42;98.49
36234;BME280;43467;50.890;5.982;2023-07-31T01:31:24;99784.78;;;17.43;98.19
36234;BME280;43467;50.890;5.982;2023-07-31T01:33:53;99679.19;;;16.82;98.56
36234;BME280;43467;50.890;5.982;2023-07-31T01:36:19;99772.13;;;17.45;97.68
36234;BME280;43467;50.890;5.982;2023-07-31T01:38:45;99775.41;;;17.48;97.79
36234;BME280;43467;50.890;5.982;2023-07-31T01:41:11;99765.81;;;17.35;97.60
36234;BME280;43467;50.890;5.982;2023-07-31T01:43:36;99739.78;;;17.26;97.57
36234;BME280;43467;50.890;5.982;2023-07-31T01:46:02;99784.53;;;17.46;97.16
36234;BME280;43467;50.890;5.982;2023-07-31T01:48:27;99773.81;;;17.46;96.86
36234;BME280;43467;50.890;5.982;2023-07-31T01:50:53;99768.34;;;17.47;97.24
36234;BME280;43467;50.890;5.982;2023-07-31T01:53:19;99772.75;;;17.48;96.59
36234;BME280;43467;50.890;5.982;2023-07-31T01:55:45;99765.41;;;17.50;96.65
36234;BME280;43467;50.890;5.982;2023-07-31T01:58:12;99750.47;;;17.48;96.60
36234;BME280;43467;50.890;5.982;2023-07-31T02:00:37;99771.50;;;17.52;96.28
36234;BME280;43467;50.890;5.982;2023-07-31T02:03:03;99761.63;;;17.53;96.19
36234;BME280;43467;50.890;5.982;2023-07-31T02:05:29;99746.78;;;17.49;95.61
36234;BME280;43467;50.890;5.982;2023-07-31T02:07:54;99712.94;;;17.27;96.02
36234;BME280;43467;50.890;5.982;2023-07-31T02:10:20;99754.72;;;17.50;96.52
36234;BME280;43467;50.890;5.982;2023-07-31T02:12:46;99741.22;;;17.52;96.07
36234;BME280;43467;50.890;5.982;2023-07-31T02:15:12;99745.34;;;17.56;96.07
36234;BME280;43467;50.890;5.982;2023-07-31T02:17:37;99747.03;;;17.57;96.20
36234;BME280;43467;50.890;5.982;2023-07-31T02:20:03;99745.13;;;17.59;95.67
36234;BME280;43467;50.890;5.982;2023-07-31T02:22:29;99718.59;;;17.45;95.55
36234;BME280;43467;50.890;5.982;2023-07-31T02:24:54;99721.03;;;17.48;95.99
36234;BME280;43467;50.890;5.982;2023-07-31T02:27:20;99728.53;;;17.54;96.30
36234;BME280;43467;50.890;5.982;2023-07-31T02:29:49;99737.69;;;17.62;96.06
36234;BME280;43467;50.890;5.982;2023-07-31T02:32:14;99733.06;;;17.64;95.56
36234;BME280;43467;50.890;5.982;2023-07-31T02:34:40;99716.28;;;17.51;95.64
36234;BME280;43467;50.890;5.982;2023-07-31T02:37:05;99713.38;;;17.43;95.58
36234;BME280;43467;50.890;5.982;2023-07-31T02:39:31;99720.50;;;17.54;95.51
36234;BME280;43467;50.890;5.982;2023-07-31T02:41:57;99727.34;;;17.58;95.17
36234;BME280;43467;50.890;5.982;2023-07-31T02:44:22;99705.19;;;17.45;95.20
36234;BME280;43467;50.890;5.982;2023-07-31T02:46:48;99714.31;;;17.53;95.08
36234;BME280;43467;50.890;5.982;2023-07-31T02:49:14;99729.28;;;17.56;95.04
36234;BME280;43467;50.890;5.982;2023-07-31T02:51:41;99729.28;;;17.56;95.49
36234;BME280;43467;50.890;5.982;2023-07-31T02:54:06;99715.78;;;17.57;95.62
36234;BME280;43467;50.890;5.982;2023-07-31T02:56:32;99683.47;;;17.38;95.23
36234;BME280;43467;50.890;5.982;2023-07-31T02:58:58;99703.13;;;17.59;94.85
36234;BME280;43467;50.890;5.982;2023-07-31T03:01:23;99653.22;;;17.27;95.11
36234;BME280;43467;50.890;5.982;2023-07-31T03:03:50;99712.13;;;17.58;95.43
36234;BME280;43467;50.890;5.982;2023-07-31T03:06:15;99699.94;;;17.54;95.06
36234;BME280;43467;50.890;5.982;2023-07-31T03:08:41;99698.97;;;17.55;94.65
36234;BME280;43467;50.890;5.982;2023-07-31T03:11:07;99664.72;;;17.38;94.57
36234;BME280;43467;50.890;5.982;2023-07-31T03:13:32;99709.56;;;17.68;94.70
36234;BME280;43467;50.890;5.982;2023-07-31T03:15:58;99707.72;;;17.69;94.33
36234;BME280;43467;50.890;5.982;2023-07-31T03:18:24;99704.78;;;17.72;94.44
36234;BME280;43467;50.890;5.982;2023-07-31T03:20:49;99697.84;;;17.69;94.01
36234;BME280;43467;50.890;5.982;2023-07-31T03:23:15;99696.03;;;17.70;94.71
36234;BME280;43467;50.890;5.982;2023-07-31T03:25:57;99696.22;;;17.78;94.46
36234;BME280;43467;50.890;5.982;2023-07-31T03:28:23;99692.09;;;17.74;94.28
36234;BME280;43467;50.890;5.982;2023-07-31T03:30:49;99685.56;;;17.67;94.32
36234;BME280;43467;50.890;5.982;2023-07-31T03:33:14;99708.31;;;17.72;94.48
36234;BME280;43467;50.890;5.982;2023-07-31T03:35:40;99680.81;;;17.70;94.39
36234;BME280;43467;50.890;5.982;2023-07-31T03:38:05;99664.03;;;17.57;94.73
36234;BME280;43467;50.890;5.982;2023-07-31T03:40:31;99685.09;;;17.73;94.39
36234;BME280;43467;50.890;5.982;2023-07-31T03:42:56;99675.59;;;17.69;94.64
36234;BME280;43467;50.890;5.982;2023-07-31T03:45:22;99676.69;;;17.66;94.53
36234;BME280;43467;50.890;5.982;2023-07-31T03:47:48;99644.00;;;17.51;94.07
36234;BME280;43467;50.890;5.982;2023-07-31T03:50:13;99668.88;;;17.74;93.83
36234;BME280;43467;50.890;5.982;2023-07-31T03:52:38;99655.28;;;17.66;93.42
36234;BME280;43467;50.890;5.982;2023-07-31T03:55:05;99666.72;;;17.68;93.85
36234;BME280;43467;50.890;5.982;2023-07-31T03:57:30;99661.09;;;17.71;93.63
36234;BME280;43467;50.890;5.982;2023-07-31T03:59:57;99677.03;;;17.73;93.78
36234;BME280;43467;50.890;5.982;2023-07-31T04:02:23;99634.84;;;17.54;93.61
36234;BME280;43467;50.890;5.982;2023-07-31T04:04:48;99639.25;;;17.55;93.68
36234;BME280;43467;50.890;5.982;2023-07-31T04:07:14;99674.50;;;17.71;93.56
36234;BME280;43467;50.890;5.982;2023-07-31T04:09:39;99658.03;;;17.76;93.58
36234;BME280;43467;50.890;5.982;2023-07-31T04:12:05;99648.88;;;17.78;92.97
36234;BME280;43467;50.890;5.982;2023-07-31T04:14:31;99659.88;;;17.75;93.00
36234;BME280;43467;50.890;5.982;2023-07-31T04:16:57;99562.03;;;17.18;93.13
36234;BME280;43467;50.890;5.982;2023-07-31T04:19:22;99655.22;;;17.77;93.02
36234;BME280;43467;50.890;5.982;2023-07-31T04:21:48;99660.72;;;17.76;93.23
36234;BME280;43467;50.890;5.982;2023-07-31T04:24:14;99650.88;;;17.65;92.52
36234;BME280;43467;50.890;5.982;2023-07-31T04:26:39;99573.53;;;17.30;92.53
36234;BME280;43467;50.890;5.982;2023-07-31T04:29:05;99612.72;;;17.52;93.03
36234;BME280;43467;50.890;5.982;2023-07-31T04:31:31;99591.56;;;17.49;92.20
36234;BME280;43467;50.890;5.982;2023-07-31T04:33:56;99579.19;;;17.48;92.17
36234;BME280;43467;50.890;5.982;2023-07-31T04:36:22;99544.38;;;17.27;91.84
36234;BME280;43467;50.890;5.982;2023-07-31T04:38:47;99644.97;;;17.82;92.07
36234;BME280;43467;50.890;5.982;2023-07-31T04:41:13;99597.34;;;17.65;91.74
36234;BME280;43467;50.890;5.982;2023-07-31T04:43:39;99631.13;;;17.77;91.91
36234;BME280;43467;50.890;5.982;2023-07-31T04:46:06;99624.19;;;17.75;91.98
36234;BME280;43467;50.890;5.982;2023-07-31T04:48:31;99594.84;;;17.52;92.02
36234;BME280;43467;50.890;5.982;2023-07-31T04:50:57;99634.53;;;17.79;92.08
36234;BME280;43467;50.890;5.982;2023-07-31T04:53:23;99622.97;;;17.79;91.97
36234;BME280;43467;50.890;5.982;2023-07-31T04:55:48;99605.13;;;17.68;92.17
36234;BME280;43467;50.890;5.982;2023-07-31T04:58:14;99618.13;;;17.73;92.08
36234;BME280;43467;50.890;5.982;2023-07-31T05:00:40;99616.75;;;17.78;92.30
36234;BME280;43467;50.890;5.982;2023-07-31T05:03:05;99622.09;;;17.78;91.98
36234;BME280;43467;50.890;5.982;2023-07-31T05:05:31;99591.16;;;17.64;91.78
36234;BME280;43467;50.890;5.982;2023-07-31T05:07:58;99593.19;;;17.72;91.81
36234;BME280;43467;50.890;5.982;2023-07-31T05:10:23;99596.97;;;17.70;92.00
36234;BME280;43467;50.890;5.982;2023-07-31T05:12:49;99598.41;;;17.74;92.22
36234;BME280;43467;50.890;5.982;2023-07-31T05:15:14;99595.31;;;17.78;92.16
36234;BME280;43467;50.890;5.982;2023-07-31T05:17:40;99606.91;;;17.79;92.29
36234;BME280;43467;50.890;5.982;2023-07-31T05:20:06;99606.03;;;17.78;92.57
36234;BME280;43467;50.890;5.982;2023-07-31T05:22:32;99597.31;;;17.76;93.50
36234;BME280;43467;50.890;5.982;2023-07-31T05:24:58;99595.66;;;17.64;94.86
36234;BME280;43467;50.890;5.982;2023-07-31T05:27:23;99598.09;;;17.67;95.83
36234;BME280;43467;50.890;5.982;2023-07-31T05:29:49;99600.03;;;17.65;96.97
36234;BME280;43467;50.890;5.982;2023-07-31T05:32:14;99569.56;;;17.45;97.93
36234;BME280;43467;50.890;5.982;2023-07-31T05:34:40;99555.19;;;17.26;98.70
36234;BME280;43467;50.890;5.982;2023-07-31T05:37:05;99595.94;;;17.50;98.91
36234;BME280;43467;50.890;5.982;2023-07-31T05:39:31;99586.34;;;17.47;99.32
36234;BME280;43467;50.890;5.982;2023-07-31T05:41:57;99586.19;;;17.49;99.30
36234;BME280;43467;50.890;5.982;2023-07-31T05:44:23;99602.41;;;17.47;99.66
36234;BME280;43467;50.890;5.982;2023-07-31T05:46:48;99573.84;;;17.37;99.86
36234;BME280;43467;50.890;5.982;2023-07-31T05:49:14;99572.19;;;17.36;99.31
36234;BME280;43467;50.890;5.982;2023-07-31T05:51:40;99589.72;;;17.49;99.21
36234;BME280;43467;50.890;5.982;2023-07-31T05:54:05;99580.41;;;17.44;99.70
36234;BME280;43467;50.890;5.982;2023-07-31T05:56:31;99592.19;;;17.52;99.79
36234;BME280;43467;50.890;5.982;2023-07-31T05:58:58;99572.00;;;17.48;98.91
36234;BME280;43467;50.890;5.982;2023-07-31T06:01:24;99597.75;;;17.60;98.97
36234;BME280;43467;50.890;5.982;2023-07-31T06:03:49;99560.69;;;17.45;98.58
36234;BME280;43467;50.890;5.982;2023-07-31T06:06:15;99569.63;;;17.55;98.92
36234;BME280;43467;50.890;5.982;2023-07-31T06:08:40;99567.31;;;17.61;99.04
36234;BME280;43467;50.890;5.982;2023-07-31T06:11:08;99582.72;;;17.69;97.59
36234;BME280;43467;50.890;5.982;2023-07-31T06:13:34;99587.09;;;17.70;97.15
36234;BME280;43467;50.890;5.982;2023-07-31T06:16:00;99579.53;;;17.75;97.34
36234;BME280;43467;50.890;5.982;2023-07-31T06:18:30;99539.47;;;17.53;97.08
36234;BME280;43467;50.890;5.982;2023-07-31T06:20:56;99571.50;;;17.75;96.82
36234;BME280;43467;50.890;5.982;2023-07-31T06:23:22;99585.75;;;17.76;96.48
36234;BME280;43467;50.890;5.982;2023-07-31T06:25:47;99572.81;;;17.81;96.66
36234;BME280;43467;50.890;5.982;2023-07-31T06:28:13;99576.75;;;17.77;95.99
36234;BME280;43467;50.890;5.982;2023-07-31T06:30:39;99564.44;;;17.74;95.88
36234;BME280;43467;50.890;5.982;2023-07-31T06:33:05;99542.88;;;17.55;96.36
36234;BME280;43467;50.890;5.982;2023-07-31T06:35:30;99530.47;;;17.54;96.16
36234;BME280;43467;50.890;5.982;2023-07-31T06:37:56;99562.63;;;17.75;96.04
36234;BME280;43467;50.890;5.982;2023-07-31T06:40:22;99574.63;;;17.80;97.80
36234;BME280;43467;50.890;5.982;2023-07-31T06:42:48;99576.19;;;17.83;97.69
36234;BME280;43467;50.890;5.982;2023-07-31T06:45:13;99557.00;;;17.78;98.24
36234;BME280;43467;50.890;5.982;2023-07-31T06:47:39;99546.09;;;17.70;99.12
36234;BME280;43467;50.890;5.982;2023-07-31T06:50:08;99565.56;;;17.72;98.88
36234;BME280;43467;50.890;5.982;2023-07-31T06:52:33;99543.53;;;17.47;99.57
36234;BME280;43467;50.890;5.982;2023-07-31T06:55:18;99577.81;;;17.74;99.95
36234;BME280;43467;50.890;5.982;2023-07-31T06:57:50;99571.88;;;17.71;100.00
36234;BME280;43467;50.890;5.982;2023-07-31T07:00:17;99593.19;;;17.72;100.00
36234;BME280;43467;50.890;5.982;2023-07-31T07:02:44;99578.22;;;17.70;100.00
36234;BME280;43467;50.890;5.982;2023-07-31T07:05:10;99535.41;;;17.38;100.00
36234;BME280;43467;50.890;5.982;2023-07-31T07:07:35;99574.38;;;17.62;100.00
36234;BME280;43467;50.890;5.982;2023-07-31T07:10:01;99574.25;;;17.64;100.00
36234;BME280;43467;50.890;5.982;2023-07-31T07:12:30;99553.34;;;17.58;100.00
36234;BME280;43467;50.890;5.982;2023-07-31T07:14:56;99564.06;;;17.58;100.00
36234;BME280;43467;50.890;5.982;2023-07-31T07:17:23;99541.50;;;17.40;100.00
36234;BME280;43467;50.890;5.982;2023-07-31T07:19:49;99536.94;;;17.31;100.00
36234;BME280;43467;50.890;5.982;2023-07-31T07:22:15;99527.47;;;17.27;100.00
36234;BME280;43467;50.890;5.982;2023-07-31T07:24:41;99548.47;;;17.31;100.00
36234;BME280;43467;50.890;5.982;2023-07-31T07:27:07;99546.00;;;17.39;100.00
36234;BME280;43467;50.890;5.982;2023-07-31T07:29:34;99520.94;;;17.19;100.00
36234;BME280;43467;50.890;5.982;2023-07-31T07:32:00;99550.88;;;17.34;100.00
36234;BME280;43467;50.890;5.982;2023-07-31T07:34:26;99560.69;;;17.45;100.00
36234;BME280;43467;50.890;5.982;2023-07-31T07:36:53;99507.78;;;17.16;100.00
36234;BME280;43467;50.890;5.982;2023-07-31T07:39:18;99551.94;;;17.43;100.00
36234;BME280;43467;50.890;5.982;2023-07-31T07:41:44;99557.50;;;17.51;100.00
36234;BME280;43467;50.890;5.982;2023-07-31T07:44:09;99562.00;;;17.50;100.00
36234;BME280;43467;50.890;5.982;2023-07-31T07:46:35;99558.63;;;17.48;100.00
36234;BME280;43467;50.890;5.982;2023-07-31T07:49:01;99539.06;;;17.37;100.00
36234;BME280;43467;50.890;5.982;2023-07-31T07:51:26;99545.34;;;17.47;100.00
36234;BME280;43467;50.890;5.982;2023-07-31T07:53:52;99535.88;;;17.43;100.00
36234;BME280;43467;50.890;5.982;2023-07-31T07:56:18;99531.59;;;17.51;100.00
36234;BME280;43467;50.890;5.982;2023-07-31T07:58:44;99542.88;;;17.55;100.00
36234;BME280;43467;50.890;5.982;2023-07-31T08:01:10;99530.28;;;17.67;100.00
36234;BME280;43467;50.890;5.982;2023-07-31T08:03:35;99516.63;;;17.70;100.00
36234;BME280;43467;50.890;5.982;2023-07-31T08:06:01;99526.25;;;17.72;100.00
36234;BME280;43467;50.890;5.982;2023-07-31T08:08:28;99504.50;;;17.65;100.00
36234;BME280;43467;50.890;5.982;2023-07-31T08:10:54;99526.66;;;17.68;100.00
36234;BME280;43467;50.890;5.982;2023-07-31T08:13:19;99508.78;;;17.57;100.00
36234;BME280;43467;50.890;5.982;2023-07-31T08:15:45;99519.47;;;17.57;100.00
36234;BME280;43467;50.890;5.982;2023-07-31T08:18:11;99520.50;;;17.56;100.00
36234;BME280;43467;50.890;5.982;2023-07-31T08:20:37;99526.31;;;17.61;100.00
36234;BME280;43467;50.890;5.982;2023-07-31T08:23:03;99508.47;;;17.50;100.00
36234;BME280;43467;50.890;5.982;2023-07-31T08:25:29;99508.34;;;17.52;100.00
36234;BME280;43467;50.890;5.982;2023-07-31T08:27:55;99532.41;;;17.63;100.00
36234;BME280;43467;50.890;5.982;2023-07-31T08:30:21;99539.69;;;17.61;100.00
36234;BME280;43467;50.890;5.982;2023-07-31T08:32:47;99532.88;;;17.57;100.00
36234;BME280;43467;50.890;5.982;2023-07-31T08:35:12;99531.59;;;17.72;100.00
36234;BME280;43467;50.890;5.982;2023-07-31T08:37:38;99537.34;;;17.68;100.00
36234;BME280;43467;50.890;5.982;2023-07-31T08:40:05;99532.03;;;17.56;100.00
36234;BME280;43467;50.890;5.982;2023-07-31T08:42:31;99522.50;;;17.43;100.00
36234;BME280;43467;50.890;5.982;2023-07-31T08:44:58;99518.78;;;17.34;100.00
36234;BME280;43467;50.890;5.982;2023-07-31T08:47:25;99526.03;;;17.43;100.00
36234;BME280;43467;50.890;5.982;2023-07-31T08:49:52;99517.63;;;17.48;100.00
36234;BME280;43467;50.890;5.982;2023-07-31T08:52:18;99536.88;;;17.42;100.00
36234;BME280;43467;50.890;5.982;2023-07-31T08:54:44;99470.09;;;17.19;100.00
36234;BME280;43467;50.890;5.982;2023-07-31T08:57:12;99530.00;;;17.49;100.00
36234;BME280;43467;50.890;5.982;2023-07-31T08:59:39;99503.97;;;17.30;100.00
36234;BME280;43467;50.890;5.982;2023-07-31T09:02:07;99529.59;;;17.64;100.00
36234;BME280;43467;50.890;5.982;2023-07-31T09:04:34;99530.19;;;17.68;100.00
36234;BME280;43467;50.890;5.982;2023-07-31T09:07:02;99543.94;;;17.63;100.00
36234;BME280;43467;50.890;5.982;2023-07-31T09:09:31;99510.03;;;17.53;100.00
36234;BME280;43467;50.890;5.982;2023-07-31T09:11:58;99527.50;;;17.68;100.00
36234;BME280;43467;50.890;5.982;2023-07-31T09:14:25;99530.19;;;17.68;100.00
36234;BME280;43467;50.890;5.982;2023-07-31T09:16:52;99528.94;;;17.72;100.00
36234;BME280;43467;50.890;5.982;2023-07-31T09:19:25;99528.25;;;17.80;100.00
36234;BME280;43467;50.890;5.982;2023-07-31T09:21:51;99522.69;;;17.92;100.00
36234;BME280;43467;50.890;5.982;2023-07-31T09:24:31;99495.50;;;17.67;100.00
36234;BME280;43467;50.890;5.982;2023-07-31T09:26:58;99524.66;;;17.90;100.00
36234;BME280;43467;50.890;5.982;2023-07-31T09:29:25;99519.69;;;17.86;100.00
36234;BME280;43467;50.890;5.982;2023-07-31T09:31:52;99525.38;;;17.92;100.00
36234;BME280;43467;50.890;5.982;2023-07-31T09:34:18;99504.28;;;17.78;100.00
36234;BME280;43467;50.890;5.982;2023-07-31T09:36:49;99460.09;;;17.42;100.00
36234;BME280;43467;50.890;5.982;2023-07-31T09:39:15;99504.66;;;17.64;100.00
36234;BME280;43467;50.890;5.982;2023-07-31T09:41:44;99508.75;;;17.68;100.00
36234;BME280;43467;50.890;5.982;2023-07-31T09:44:10;99510.25;;;17.61;100.00
36234;BME280;43467;50.890;5.982;2023-07-31T09:46:36;99479.50;;;17.35;100.00
36234;BME280;43467;50.890;5.982;2023-07-31T09:49:12;99521.41;;;17.66;100.00
36234;BME280;43467;50.890;5.982;2023-07-31T09:51:39;99479.03;;;17.50;100.00
36234;BME280;43467;50.890;5.982;2023-07-31T09:54:16;99507.16;;;17.65;100.00
36234;BME280;43467;50.890;5.982;2023-07-31T09:56:46;99511.16;;;17.71;100.00
36234;BME280;43467;50.890;5.982;2023-07-31T09:59:14;99515.22;;;17.65;100.00
36234;BME280;43467;50.890;5.982;2023-07-31T10:01:41;99509.72;;;17.67;100.00
36234;BME280;43467;50.890;5.982;2023-07-31T10:04:11;99491.44;;;17.51;100.00
36234;BME280;43467;50.890;5.982;2023-07-31T10:06:38;99478.72;;;17.44;100.00
36234;BME280;43467;50.890;5.982;2023-07-31T10:09:09;99518.72;;;17.66;100.00
36234;BME280;43467;50.890;5.982;2023-07-31T10:11:59;99514.13;;;17.68;100.00
36234;BME280;43467;50.890;5.982;2023-07-31T10:14:26;99511.88;;;17.73;100.00
36234;BME280;43467;50.890;5.982;2023-07-31T10:16:53;99472.81;;;17.50;100.00
36234;BME280;43467;50.890;5.982;2023-07-31T10:19:20;99506.78;;;17.70;100.00
36234;BME280;43467;50.890;5.982;2023-07-31T10:21:48;99512.31;;;17.78;100.00
36234;BME280;43467;50.890;5.982;2023-07-31T10:24:14;99494.81;;;17.74;100.00
36234;BME280;43467;50.890;5.982;2023-07-31T10:26:45;99502.72;;;17.76;100.00
36234;BME280;43467;50.890;5.982;2023-07-31T10:29:11;99483.41;;;17.72;100.00
36234;BME280;43467;50.890;5.982;2023-07-31T10:31:38;99485.81;;;17.75;100.00
36234;BME280;43467;50.890;5.982;2023-07-31T10:34:05;99515.72;;;17.80;100.00
36234;BME280;43467;50.890;5.982;2023-07-31T10:36:31;99499.38;;;17.83;100.00
36234;BME280;43467;50.890;5.982;2023-07-31T10:38:57;99501.38;;;17.91;100.00
36234;BME280;43467;50.890;5.982;2023-07-31T10:41:30;99504.19;;;17.89;100.00
36234;BME280;43467;50.890;5.982;2023-07-31T10:44:00;99473.97;;;17.78;100.00
36234;BME280;43467;50.890;5.982;2023-07-31T10:46:28;99475.81;;;17.77;100.00
36234;BME280;43467;50.890;5.982;2023-07-31T10:49:00;99479.84;;;17.92;100.00
36234;BME280;43467;50.890;5.982;2023-07-31T10:51:33;99473.31;;;17.85;100.00
36234;BME280;43467;50.890;5.982;2023-07-31T10:54:13;99492.97;;;17.95;100.00
36234;BME280;43467;50.890;5.982;2023-07-31T10:56:40;99468.97;;;17.94;100.00
36234;BME280;43467;50.890;5.982;2023-07-31T10:59:09;99477.34;;;18.10;100.00
36234;BME280;43467;50.890;5.982;2023-07-31T11:01:55;99473.47;;;18.24;100.00
36234;BME280;43467;50.890;5.982;2023-07-31T11:04:27;99471.50;;;18.26;100.00
36234;BME280;43467;50.890;5.982;2023-07-31T11:06:58;99471.91;;;18.31;100.00
36234;BME280;43467;50.890;5.982;2023-07-31T11:09:28;99425.72;;;17.98;100.00
36234;BME280;43467;50.890;5.982;2023-07-31T11:11:55;99395.22;;;17.80;100.00
36234;BME280;43467;50.890;5.982;2023-07-31T11:14:21;99436.31;;;18.09;100.00
36234;BME280;43467;50.890;5.982;2023-07-31T11:16:50;99492.66;;;18.38;100.00
36234;BME280;43467;50.890;5.982;2023-07-31T11:19:24;99450.31;;;18.23;100.00
36234;BME280;43467;50.890;5.982;2023-07-31T11:21:53;99478.69;;;18.35;99.58
36234;BME280;43467;50.890;5.982;2023-07-31T11:24:19;99470.66;;;18.35;99.38
36234;BME280;43467;50.890;5.982;2023-07-31T11:26:52;99445.66;;;18.15;99.71
36234;BME280;43467;50.890;5.982;2023-07-31T11:29:19;99491.00;;;18.47;98.96
36234;BME280;43467;50.890;5.982;2023-07-31T11:31:45;99467.88;;;18.46;99.54
36234;BME280;43467;50.890;5.982;2023-07-31T11:34:12;99479.28;;;18.48;99.03
36234;BME280;43467;50.890;5.982;2023-07-31T11:36:37;99468.69;;;18.46;98.42
36234;BME280;43467;50.890;5.982;2023-07-31T11:39:10;99467.16;;;18.44;98.68
36234;BME280;43467;50.890;5.982;2023-07-31T11:41:36;99472.41;;;18.55;97.88
36234;BME280;43467;50.890;5.982;2023-07-31T11:44:05;99469.88;;;18.63;97.54
36234;BME280;43467;50.890;5.982;2023-07-31T11:46:31;99464.84;;;18.70;98.73
36234;BME280;43467;50.890;5.982;2023-07-31T11:49:00;99462.56;;;18.65;98.41
36234;BME280;43467;50.890;5.982;2023-07-31T11:51:27;99444.63;;;18.56;99.65
36234;BME280;43467;50.890;5.982;2023-07-31T11:53:57;99498.97;;;18.68;99.58
36234;BME280;43467;50.890;5.982;2023-07-31T11:56:24;99461.44;;;18.68;100.00
36234;BME280;43467;50.890;5.982;2023-07-31T11:58:59;99433.44;;;18.51;100.00
36234;BME280;43467;50.890;5.982;2023-07-31T12:01:28;99485.44;;;18.69;99.94
36234;BME280;43467;50.890;5.982;2023-07-31T12:03:54;99451.28;;;18.71;100.00
36234;BME280;43467;50.890;5.982;2023-07-31T12:06:21;99423.00;;;18.48;98.76
36234;BME280;43467;50.890;5.982;2023-07-31T12:08:47;99443.06;;;18.63;98.67
36234;BME280;43467;50.890;5.982;2023-07-31T12:11:13;99447.31;;;18.75;96.95
36234;BME280;43467;50.890;5.982;2023-07-31T12:13:40;99445.22;;;18.69;96.60
36234;BME280;43467;50.890;5.982;2023-07-31T12:16:05;99424.88;;;18.67;96.62
36234;BME280;43467;50.890;5.982;2023-07-31T12:18:36;99435.91;;;18.73;96.06
36234;BME280;43467;50.890;5.982;2023-07-31T12:21:07;99437.19;;;18.79;95.82
36234;BME280;43467;50.890;5.982;2023-07-31T12:23:36;99422.75;;;18.80;96.10
36234;BME280;43467;50.890;5.982;2023-07-31T12:26:15;99439.56;;;18.91;95.76
36234;BME280;43467;50.890;5.982;2023-07-31T12:31:09;99446.78;;;18.81;94.96
36234;BME280;43467;50.890;5.982;2023-07-31T12:33:36;99443.66;;;18.76;94.52
36234;BME280;43467;50.890;5.982;2023-07-31T12:36:04;99438.88;;;18.70;94.76
36234;BME280;43467;50.890;5.982;2023-07-31T12:38:31;99448.72;;;18.79;94.76
36234;BME280;43467;50.890;5.982;2023-07-31T12:40:57;99427.69;;;18.84;94.78
36234;BME280;43467;50.890;5.982;2023-07-31T12:43:23;99427.84;;;18.92;93.76
36234;BME280;43467;50.890;5.982;2023-07-31T12:45:48;99403.69;;;19.02;93.89
36234;BME280;43467;50.890;5.982;2023-07-31T12:48:14;99388.97;;;19.16;92.18
36234;BME280;43467;50.890;5.982;2023-07-31T12:50:40;99363.28;;;19.13;91.48
36234;BME280;43467;50.890;5.982;2023-07-31T12:53:05;99346.41;;;19.30;89.98
36234;BME280;43467;50.890;5.982;2023-07-31T12:55:32;99356.56;;;19.46;90.28
36234;BME280;43467;50.890;5.982;2023-07-31T12:58:00;99339.88;;;19.52;90.44
36234;BME280;43467;50.890;5.982;2023-07-31T13:00:26;99353.69;;;19.57;89.18
36234;BME280;43467;50.890;5.982;2023-07-31T13:02:52;99318.94;;;19.56;88.78
36234;BME280;43467;50.890;5.982;2023-07-31T13:05:18;99333.88;;;19.85;88.32